Bloom City, Wisconsin
Current Conditions -  °F | °C
As of 2:55 AM on Sunday 23 Nov 2014 (Local Time) from KC35 Reporting Station
Overcast Overcast  
Wind Chill: 44°   Ceiling: 900
Heat Index: 49°   Visibility: 7mi
Dew Point: 48°   Wind: 14mph
Humidity: 96%   Direction: 190°S
Pressure: 29.64"   Gusts: 22mph
Location:  43.6121°N, 90.3998°W
Report Text: KC35 230855Z AUTO 19012G19KT 7SM OVC009 10/09 A2964 RMK AO2 T00950089
Loading
Personal Weather Stations






























Interactive Weather Map New forecast layout! Learn more

10-Day Weather Forecast

Advertisements
Track Severe Weather on mobile